Orbital elements of FENGYUN 1C DEB
| Launched | 9 May 1999 |
| Flight ended | – |
| Launch site | Taiyuan Space Center, PRC |
| Owner | People's Republic of China |
| NORAD ID | 31680 |
| Date fetched |
Epoch osculation |
Inc. [°] |
Ecc. | RA asc node [hr] |
Arg Peri. [°] |
Mean anom [°] |
Mean motion [rev/day] |
Abs. mag |
| Date fetched |
Epoch osculation |
Inc. [°] |
Ecc. | RA asc node [hr] |
Arg Peri. [°] |
Mean anom [°] |
Mean motion [rev/day] |
Abs. mag |
| 2026 May 03 17:57 | 2026 Apr 29 21:33:11 | 99.8461 | 0.00598 | 18.4679 | 193.2828 | 166.6838 | 15.36599 | – |
| 2026 May 02 17:57 | 2026 Apr 29 21:33:11 | 99.8461 | 0.00598 | 18.4679 | 193.2828 | 166.6838 | 15.36599 | – |
| 2026 May 01 17:56 | 2026 Apr 29 21:33:11 | 99.8461 | 0.00598 | 18.4679 | 193.2828 | 166.6838 | 15.36599 | – |
| 2026 Apr 30 17:56 | 2026 Apr 29 21:33:11 | 99.8461 | 0.00598 | 18.4679 | 193.2828 | 166.6838 | 15.36599 | – |
| 2026 Apr 29 17:57 | 2026 Apr 24 05:33:47 | 99.8467 | 0.00606 | 17.9633 | 212.0882 | 166.6838 | 15.36599 | – |
| 2026 Apr 28 17:56 | 2026 Apr 24 05:33:47 | 99.8467 | 0.00606 | 17.9633 | 212.0882 | 166.6838 | 15.36599 | – |
| 2026 Apr 27 17:58 | 2026 Apr 24 05:33:47 | 99.8467 | 0.00606 | 17.9633 | 212.0882 | 166.6838 | 15.36599 | – |
| 2026 Apr 26 17:58 | 2026 Apr 24 05:33:47 | 99.8467 | 0.00606 | 17.9633 | 212.0882 | 166.6838 | 15.36599 | – |
| 2026 Apr 25 17:58 | 2026 Apr 24 05:33:47 | 99.8467 | 0.00606 | 17.9633 | 212.0882 | 166.6838 | 15.36599 | – |
| 2026 Apr 24 17:59 | 2026 Apr 24 05:33:47 | 99.8467 | 0.00606 | 17.9633 | 212.0882 | 166.6838 | 15.36599 | – |
| 2026 Apr 23 17:57 | 2026 Apr 18 16:39:32 | 99.8446 | 0.00609 | 17.4706 | 229.8777 | 166.6838 | 15.36599 | – |
| 2026 Apr 22 17:57 | 2026 Apr 18 16:39:32 | 99.8446 | 0.00609 | 17.4706 | 229.8777 | 166.6838 | 15.36599 | – |
| 2026 Apr 21 17:57 | 2026 Apr 18 16:39:32 | 99.8446 | 0.00609 | 17.4706 | 229.8777 | 166.6838 | 15.36599 | – |
| 2026 Apr 20 17:57 | 2026 Apr 18 16:39:32 | 99.8446 | 0.00609 | 17.4706 | 229.8777 | 166.6838 | 15.36599 | – |
| 2026 Apr 19 17:58 | 2026 Apr 18 16:39:32 | 99.8446 | 0.00609 | 17.4706 | 229.8777 | 166.6838 | 15.36599 | – |
| 2026 Apr 18 17:56 | 2026 Apr 12 16:46:19 | 99.8420 | 0.00612 | 16.9376 | 249.8012 | 166.6838 | 15.36599 | – |
| 2026 Apr 16 17:57 | 2026 Apr 12 16:46:19 | 99.8420 | 0.00612 | 16.9376 | 249.8012 | 166.6838 | 15.36599 | – |
| 2026 Apr 14 17:57 | 2026 Apr 12 16:46:19 | 99.8420 | 0.00612 | 16.9376 | 249.8012 | 166.6838 | 15.36599 | – |
| 2026 Apr 13 17:57 | 2026 Apr 12 16:46:19 | 99.8420 | 0.00612 | 16.9376 | 249.8012 | 166.6838 | 15.36599 | – |
| 2026 Apr 12 17:57 | 2026 Apr 02 15:50:18 | 99.8435 | 0.00621 | 16.0457 | 282.5413 | 166.6838 | 15.36599 | – |
| 2026 Apr 11 17:57 | 2026 Apr 02 15:50:18 | 99.8435 | 0.00621 | 16.0457 | 282.5413 | 166.6838 | 15.36599 | – |
| 2026 Apr 10 17:58 | 2026 Apr 02 15:50:18 | 99.8435 | 0.00621 | 16.0457 | 282.5413 | 166.6838 | 15.36599 | – |
| 2026 Apr 09 18:01 | 2026 Apr 02 15:50:18 | 99.8435 | 0.00621 | 16.0457 | 282.5413 | 166.6838 | 15.36599 | – |
| 2026 Apr 08 17:57 | 2026 Apr 02 15:50:18 | 99.8435 | 0.00621 | 16.0457 | 282.5413 | 166.6838 | 15.36599 | – |
| 2026 Apr 07 17:57 | 2026 Apr 02 03:19:02 | 99.8427 | 0.00621 | 15.9995 | 284.1696 | 166.6838 | 15.36599 | – |
| 2026 Apr 06 17:57 | 2026 Apr 02 03:19:02 | 99.8427 | 0.00621 | 15.9995 | 284.1696 | 166.6838 | 15.36599 | – |